Reno, NV

4:21 AM PDT on August 28, 2014 (GMT -0700)
Palomino Valley (Off Pyramid Highway) | Change Station
CLOSE
Current Station
Personal Weather Station
Location: Reno, NV
Elevation: 4410 ft
Nearby Weather Stations

Elev 4410 ft 39.83 °N, 119.64 °W | Updated 1 minute ago

Clear
Clear
61.9 °F
Feels Like 61.9 °F
N
0.0
Wind Variable Wind from East
Gusts 1.0 mph

Today
High -- | Low -- °F
--% Chance of Precip.
Yesterday
High -- | Low -- °F
Precip. -- in
6:22 AM 7:35 PM
Waxing Crescent, 7% visible
Pressure 30.24 in
Visibility 10.0 miles
Clouds Clear
Dew Point 40 °F
Humidity 44%
Rainfall 0.00 in
Snow Depth Not available.
UV 0 out of 12
Pollen 8.40 out of 12
Air Quality Not available.
Flu Activity Not available.
METAR KRTS 281115Z AUTO 35008KT 10SM CLR 14/04 A3024 RMK AO2

More Conditions Fewer Conditions

Pressure 30.24 in
Visibility 10.0 miles
Clouds Clear
Dew Point 40 °F
Humidity 44%
Rainfall 0.00 in
Snow Depth Not available.
UV 0 out of 12
Pollen 8.40 out of 12
Air Quality Not available.
Flu Activity Not available.
METAR KRTS 281115Z AUTO 35008KT 10SM CLR 14/04 A3024 RMK AO2

More Conditions Fewer Conditions

10-Day Weather Forecast

Almanac

Astronomy

Aug. 28, 2014 Rise Set
Actual Time 6:22 AM PDT 7:35 PM PDT
Civil Twilight 5:54 AM PDT 8:02 PM PDT
Nautical Twilight 5:20 AM PDT 8:36 PM PDT
Astronomical Twilight 4:45 AM PDT 9:10 PM PDT
Moon 9:18 AM PDT 9:02 PM PDT
Length of Visible Light 14h 08m
Length of Day
13h 12m
Tomorrow will be 2m 28s shorter.
Waxing Crescent, 7% of the Moon is Illuminated
Today
Waxing Crescent
Sep 2
First Quarter
Sep 8
Full
Sep 15
Last Quarter
Sep 24
New

Today's Extremes

State Highs State Lows

Community

WunderPhotos

Upload Photos

1,747,923 photos uploaded!

Nearby

Snow Depth

Station Depth Elevation
Mt. Rose Ski Area 0 in 8850 ft
Marlette Lake 0 in 8000 ft
Big Creek Summit 0 in 8700 ft
Lewis Peak 0 in 7400 ft
Lamance Creek 1 in 6000 ft

Earthquake Activity

City Distance Mag. Time & Date
No recent earthquake activity has been reported nearby.
Minimum magnitude displayed is 2.5.

Coastal Water Temperatures

Place Temperature
No Stations Reporting

Nearby Weather Stations